Terminal Aerodrome Forecast
Issued by NWS

Home | Current Version | Previous Version | Text Only | Print | Product List | Glossary On
Versions: 1 2 3 4 5 6 7 8 9 10 11 12 13 14 15 16 17 18 19 20 21 22 23 24 25
000
FTUS43 KDLH 242000 AAB
TAFHYR
TAF AMD
KHYR 242004Z 2420/2518 10010KT 3SM -SN BR OVC024
      TEMPO 2420/2424 2SM -SN BKN009
     FM250000 VRB03KT 2SM -SN BR OVC006
     FM250600 VRB05KT P6SM OVC004
     FM250900 VRB05KT 4SM BR OVC010
     FM251200 33012KT P6SM OVC020=

USA.gov is the U.S. government's official web portal to all federal, state and local government web resources and services.